< < Back
Terminal Aerodrome Forecast


Current Version              Previous Versions:   1  2  3  4  5  6  7  8  9  

Terminal Aerodrome Forecast

876
FTUS44 KBMX 010500
TAFTCL
TAF
KTCL 010527Z 0106/0206 03004KT P6SM SCT050 BKN100
     FM011500 02006KT P6SM BKN150=



Latest METAR

118
SAUS70 KWBC 011300 RRK
MTRTCL
METAR KTCL 011253Z AUTO 05005KT 7SM CLR 22/19 A3005 RMK AO2 SLP172
T02220189


USA.gov is the U.S. government's official web portal to all federal, state and local government web resources and services.